Morton, MN (56270)

5:59 AM CST on December 11, 2016 (GMT -0600)
Redwood Falls Municipal | | Change Station
Active Advisory: Winter Storm Warning

Elev 1024 ft 44.55 °N, 95.08 °W | Updated 6 minutes ago

Snow
Snow
16 °F
Feels Like 5 °F
N
8
Wind Variable Wind from ENE

Today
High -- | Low -- °F
--% Chance of Precip.
Yesterday
High -- | Low -- °F
Precip. -- in
Pressure 29.98 in
Visibility 0.8 miles
Clouds
Windchill 5 °F
Dew Point 12 °F
Humidity 84%
Rainfall 0.09 in
Snow Depth Not available.
7:46 AM 4:39 PM
Waxing Gibbous, 91% visible
METAR KRWF 111153Z AUTO 07007KT 3/4SM -SN BR VV011 M09/M11 A2991 RMK AO2 SLP150 P0001 60009 70015 T10891111 11089 21106 51001
Pressure 29.98 in
Visibility 0.8 miles
Clouds
Windchill 5 °F
Dew Point 12 °F
Humidity 84%
Rainfall 0.09 in
Snow Depth Not available.
7:46 AM 4:39 PM
Waxing Gibbous, 91% visible
METAR KRWF 111153Z AUTO 07007KT 3/4SM -SN BR VV011 M09/M11 A2991 RMK AO2 SLP150 P0001 60009 70015 T10891111 11089 21106 51001

10-Day Weather Forecast

Almanac

Astronomy

Dec. 11, 2016 Rise Set
Actual Time
Civil Twilight
Nautical Twilight
Astronomical Twilight
Moon
Length of Visible Light
Length of Day
Tomorrow will be .
, % of the Moon is Illuminated

Today's Extremes

State Highs State Lows

Community

WunderPhotos

Upload Photos

1,956,710 photos uploaded!

WunderBlog® & News

Nearby

Air Quality

  Air Quality AQ Index Pollutant
Not available.

Snow Depth

Station Depth Elevation

Earthquake Activity

City Distance Mag. Time & Date
Minimum magnitude displayed is 2.5.

Coastal Water Temperatures

Place Temperature

Stations

Nearby Weather Stations

Station Location Temp. Windchill Dew Point Humidity Wind Precip. Elev Updated Type
                   

Watches & Warnings

Winter Storm Warning
Issued: 3:56 AM CST Dec. 11, 2016 – National Weather Service

... Winter Storm Warning now in effect until 9 am CST this
morning...

The Winter Storm Warning is now in effect until 9 am CST this
morning.

* Expect snow to continue... diminishing around 9 am.

* Storm total snow accumulations of 6 to 10 inches are expected.

* Look for significant reductions in visibility at times.

* Plan on difficult driving conditions.

Precautionary/preparedness actions...

A Winter Storm Warning for snow means severe winter weather
conditions are occurring. If you must travel... keep an extra
flashlight... food and water in your vehicle in case of an
emergency. The latest Road conditions for the state you are
calling from can be obtained by calling 5 1 1.